Latest Weather Observations for Portland Harbour

IDV60801

Issued at 11:35 pm EDT Friday 24 October 2014 (issued every 30 minutes, with the page automatically refreshed every 10 minutes)

About weather observations | Map of weather stations | Latest weather observations for VIC | Other Formats
Station Details ID: 090192 Name: PORTLAND NTC AWS Lat: -38.34 Lon: 141.61 Height: 0.0 m
Data from the previous 72 hours. | See also: Recent months for locations in Victoria
Date/Time
EDT
Temp
°C
App
Temp
°C
Dew
Point
Rel
Hum
%
Delta-T
°C
Wind Press
QNH
hPa
Press
MSL
hPa
Rain
since 9 am
mm
Dir
 
Spd
km/h
Gust
km/h
Spd
kts
Gust
kts
24/11:30pm 14.5 - - - - SSW 15 22 8 12 1016.9 1016.9 -
24/11:00pm 14.4 - - - - SW 11 17 6 9 1016.7 1016.7 -
24/10:30pm 14.4 - - - - SW 15 20 8 11 1016.5 1016.5 -
24/10:00pm 14.6 - - - - SW 15 20 8 11 1016.3 1016.3 -
24/09:30pm 14.6 - - - - WSW 15 22 8 12 1016.0 1016.0 -
24/09:00pm 14.9 - - - - WSW 13 19 7 10 1015.8 1015.8 -
24/08:30pm 14.9 - - - - SW 17 26 9 14 1015.3 1015.3 -
24/08:00pm 14.9 - - - - WSW 20 26 11 14 1014.9 1014.9 -
24/07:30pm 15.1 - - - - WSW 20 30 11 16 1014.6 1014.6 -
24/07:00pm 15.3 - - - - W 20 30 11 16 1014.1 1014.1 -
24/06:30pm 15.4 - - - - W 30 39 16 21 1013.7 1013.7 -
24/06:00pm 15.8 - - - - W 24 37 13 20 1013.0 1013.0 -
24/05:30pm 15.9 - - - - WSW 28 43 15 23 1013.0 1013.0 -
24/05:14pm 15.7 - - - - WSW 30 50 16 27 1012.9 1012.9 -
24/05:00pm 15.9 - - - - W 26 39 14 21 1012.8 1012.8 -
24/04:30pm 16.1 - - - - WSW 30 50 16 27 1012.5 1012.5 -
24/04:28pm 16.3 - - - - WSW 30 50 16 27 1012.6 1012.6 -
24/04:00pm 16.8 - - - - W 24 41 13 22 1012.2 1012.2 -
24/03:30pm 17.4 - - - - W 28 39 15 21 1012.1 1012.1 -
24/03:00pm 16.6 - - - - W 35 43 19 23 1011.7 1011.7 -
24/02:30pm 17.0 - - - - W 30 43 16 23 1011.7 1011.7 -
24/02:00pm 17.3 - - - - WNW 26 37 14 20 1011.7 1011.7 -
24/01:30pm 16.6 - - - - W 26 37 14 20 1012.0 1012.0 -
24/01:00pm 16.6 - - - - W 20 35 11 19 1012.0 1012.0 -
24/12:30pm 15.8 - - - - W 26 39 14 21 1012.4 1012.4 -
24/12:00pm 15.8 - - - - W 24 35 13 19 1012.5 1012.5 -
24/11:30am 16.1 - - - - W 32 43 17 23 1012.3 1012.3 -
24/11:00am 18.9 - - - - W 24 35 13 19 1012.0 1012.0 -
24/10:30am 19.1 - - - - W 26 35 14 19 1012.0 1012.0 -
24/10:00am 18.3 - - - - NW 11 17 6 9 1011.1 1011.1 -
24/09:30am 16.9 - - - - NW 7 19 4 10 1011.3 1011.3 -
24/09:00am 15.0 - - - - NNW 6 7 3 4 1011.7 1011.7 -
24/08:30am 14.4 - - - - N 9 9 5 5 1011.7 1011.7 -
24/08:00am 14.5 - - - - N 7 9 4 5 1011.7 1011.7 -
24/07:30am 14.6 - - - - N 7 9 4 5 1011.4 1011.4 -
24/07:00am 14.9 - - - - NNE 7 9 4 5 1011.2 1011.2 -
24/06:30am 15.0 - - - - NE 11 13 6 7 1011.3 1011.3 -
24/06:00am 15.1 - - - - ENE 13 15 7 8 1011.1 1011.1 -
24/05:30am 15.3 - - - - ENE 17 19 9 10 1011.2 1011.2 -
24/05:00am 15.4 - - - - ENE 17 20 9 11 1011.3 1011.3 -
24/04:30am 15.6 - - - - ENE 15 19 8 10 1011.4 1011.4 -
24/04:00am 15.7 - - - - ENE 17 20 9 11 1011.5 1011.5 -
24/03:30am 15.7 - - - - NE 20 24 11 13 1011.7 1011.7 -
24/03:00am 15.7 - - - - ENE 19 22 10 12 1012.2 1012.2 -
24/02:30am 15.9 - - - - ENE 17 20 9 11 1012.5 1012.5 -
24/02:00am 16.0 - - - - ENE 20 24 11 13 1013.0 1013.0 -
24/01:30am 16.0 - - - - ENE 20 26 11 14 1013.5 1013.5 -
24/01:00am 15.9 - - - - E 22 30 12 16 1013.7 1013.7 -
24/12:30am 15.9 - - - - E 22 28 12 15 1013.9 1013.9 -
24/12:00am 15.9 - - - - E 22 28 12 15 1014.3 1014.3 -
 
Date/Time
EDT
Temp
°C
App
Temp
°C
Dew
Point
Rel
Hum
%
Delta-T
°C
Wind Press
QNH
hPa
Press
MSL
hPa
Rain
since 9 am
mm
Dir
 
Spd
km/h
Gust
km/h
Spd
kts
Gust
kts
23/11:30pm 15.5 - - - - E 15 20 8 11 1014.8 1014.8 -
23/11:00pm 15.6 - - - - E 15 20 8 11 1014.9 1014.9 -
23/10:30pm 15.4 - - - - E 15 17 8 9 1015.3 1015.3 -
23/10:00pm 15.2 - - - - ENE 15 17 8 9 1015.2 1015.2 -
23/09:30pm 15.2 - - - - E 13 15 7 8 1015.4 1015.4 -
23/09:00pm 15.1 - - - - ESE 11 17 6 9 1015.3 1015.3 -
23/08:30pm 14.9 - - - - ESE 13 17 7 9 1015.4 1015.4 -
23/08:00pm 14.8 - - - - ESE 15 19 8 10 1015.3 1015.3 -
23/07:30pm 14.7 - - - - SE 15 19 8 10 1015.7 1015.7 -
23/07:00pm 14.6 - - - - ESE 19 24 10 13 1015.9 1015.9 -
23/06:30pm 14.7 - - - - ESE 20 26 11 14 1015.8 1015.8 -
23/06:00pm 14.9 - - - - ESE 20 24 11 13 1015.9 1015.9 -
23/05:30pm 14.9 - - - - SE 22 28 12 15 1016.0 1016.0 -
23/05:00pm 14.8 - - - - ESE 20 26 11 14 1016.1 1016.1 -
23/04:30pm 14.7 - - - - E 22 32 12 17 1016.2 1016.2 -
23/04:00pm 14.5 - - - - ESE 22 28 12 15 1016.6 1016.6 -
23/03:30pm 14.5 - - - - SE 19 26 10 14 1017.3 1017.3 -
23/03:00pm 14.5 - - - - ESE 22 28 12 15 1017.4 1017.4 -
23/02:30pm 14.4 - - - - ESE 20 32 11 17 1017.8 1017.8 -
23/02:00pm 14.4 - - - - ESE 22 30 12 16 1018.1 1018.1 -
23/01:30pm 14.1 - - - - ESE 26 33 14 18 1018.5 1018.5 -
23/01:00pm 14.1 - - - - ESE 26 37 14 20 1018.9 1018.9 -
23/12:30pm 14.0 - - - - ESE 30 35 16 19 1019.4 1019.4 -
23/12:00pm 13.8 - - - - SE 30 37 16 20 1019.7 1019.7 -
23/11:30am 13.9 - - - - ESE 32 39 17 21 1019.9 1019.9 -
23/11:00am 13.9 - - - - ESE 30 37 16 20 1020.3 1020.3 -
23/10:30am 13.5 - - - - SE 33 44 18 24 1020.6 1020.6 -
23/10:00am 13.5 - - - - ESE 28 39 15 21 1020.7 1020.7 -
23/09:30am 13.7 - - - - ESE 30 35 16 19 1020.8 1020.8 -
23/09:00am 13.7 - - - - SE 32 41 17 22 1020.9 1020.9 -
23/08:30am 13.5 - - - - SE 28 37 15 20 1020.8 1020.8 -
23/08:00am 13.6 - - - - SE 28 39 15 21 1020.8 1020.8 -
23/07:30am 13.8 - - - - SE 32 41 17 22 1020.7 1020.7 -
23/07:00am 13.6 - - - - SE 26 35 14 19 1020.6 1020.6 -
23/06:30am 13.7 - - - - SE 30 37 16 20 1020.3 1020.3 -
23/06:00am 14.0 - - - - SE 28 39 15 21 1020.3 1020.3 -
23/05:30am 14.1 - - - - SE 26 33 14 18 1020.1 1020.1 -
23/05:00am 14.1 - - - - SE 28 37 15 20 1020.1 1020.1 -
23/04:30am 13.9 - - - - SE 26 35 14 19 1020.2 1020.2 -
23/04:00am 14.1 - - - - SE 26 35 14 19 1020.3 1020.3 -
23/03:30am 13.7 - - - - SE 24 35 13 19 1020.3 1020.3 -
23/03:00am 13.7 - - - - SE 28 33 15 18 1020.6 1020.6 -
23/02:30am 13.9 - - - - SE 20 32 11 17 1020.6 1020.6 -
23/02:00am 13.9 - - - - SE 24 32 13 17 1020.7 1020.7 -
23/01:30am 13.9 - - - - SE 22 32 12 17 1020.7 1020.7 -
23/01:00am 13.8 - - - - SSE 20 28 11 15 1021.0 1021.0 -
23/12:30am 13.9 - - - - SE 22 32 12 17 1021.1 1021.1 -
23/12:00am 13.8 - - - - SE 26 33 14 18 1021.1 1021.1 -
 
Date/Time
EDT
Temp
°C
App
Temp
°C
Dew
Point
Rel
Hum
%
Delta-T
°C
Wind Press
QNH
hPa
Press
MSL
hPa
Rain
since 9 am
mm
Dir
 
Spd
km/h
Gust
km/h
Spd
kts
Gust
kts
22/11:30pm 14.1 - - - - SE 20 32 11 17 1021.1 1021.1 -
22/11:00pm 14.0 - - - - SE 22 28 12 15 1021.0 1021.0 -
22/10:30pm 14.4 - - - - SE 24 33 13 18 1020.9 1020.9 -
22/10:00pm 13.9 - - - - SE 20 30 11 16 1020.9 1020.9 -
22/09:30pm 14.1 - - - - SSE 22 30 12 16 1020.9 1020.9 -
22/09:00pm 14.3 - - - - SSE 20 30 11 16 1020.8 1020.8 -
22/08:30pm 14.2 - - - - SSE 20 32 11 17 1020.4 1020.4 -
22/08:00pm 14.3 - - - - S 20 32 11 17 1020.1 1020.1 -
22/07:30pm 14.3 - - - - S 24 35 13 19 1019.4 1019.4 -
22/07:00pm 14.4 - - - - S 26 35 14 19 1018.8 1018.8 -
22/06:30pm 14.4 - - - - S 24 37 13 20 1018.4 1018.4 -
22/06:00pm 14.8 - - - - S 24 37 13 20 1018.0 1018.0 -
22/05:30pm 15.0 - - - - S 28 39 15 21 1017.6 1017.6 -
22/05:00pm 15.0 - - - - SSW 26 37 14 20 1017.5 1017.5 -
22/04:30pm 15.3 - - - - SSW 28 39 15 21 1017.6 1017.6 -
22/04:00pm 15.6 - - - - SSW 30 37 16 20 1017.6 1017.6 -
22/03:30pm 15.9 - - - - SSW 35 46 19 25 1017.6 1017.6 -
22/03:00pm 16.8 - - - - SSW 32 39 17 21 1017.4 1017.4 -
22/02:30pm 17.6 - - - - S 30 41 16 22 1017.2 1017.2 -
22/02:00pm 18.8 - - - - SSW 24 33 13 18 1017.0 1017.0 -
22/01:30pm 23.2 - - - - WSW 22 30 12 16 1016.5 1016.5 -
22/01:00pm 23.7 - - - - WSW 19 24 10 13 1016.3 1016.3 -
22/12:30pm 23.0 - - - - WSW 22 30 12 16 1016.5 1016.5 -
22/12:00pm 21.5 - - - - WSW 19 32 10 17 1016.6 1016.6 -
22/11:30am 20.6 - - - - SSE 11 30 6 16 1016.7 1016.7 -
22/11:00am 18.0 - - - - E 4 6 2 3 1016.9 1016.9 -
22/10:30am 18.0 - - - - ENE 7 9 4 5 1016.8 1016.8 -
22/10:00am 18.5 - - - - E 2 4 1 2 1016.7 1016.7 -
22/09:30am 16.5 - - - - SSW 2 6 1 3 1016.9 1016.9 -
22/09:00am 16.7 - - - - ENE 7 9 4 5 1016.5 1016.5 -
22/08:30am 17.0 - - - - N 7 7 4 4 1016.6 1016.6 -
22/08:00am 17.2 - - - - SSW 4 7 2 4 1016.8 1016.8 -
22/07:30am 17.4 - - - - ESE 6 7 3 4 1016.4 1016.4 -
22/07:00am 16.6 - - - - SSW 4 6 2 3 1016.5 1016.5 -
22/06:30am 16.7 - - - - SW 2 6 1 3 1016.2 1016.2 -
22/06:00am 17.5 - - - - W 7 13 4 7 1016.3 1016.3 -
22/05:30am 16.7 - - - - W 9 15 5 8 1016.3 1016.3 -
22/05:00am 17.3 - - - - NNW 7 11 4 6 1015.9 1015.9 -
22/04:30am 14.3 - - - - SW 6 6 3 3 1016.1 1016.1 -
22/04:00am 14.3 - - - - SW 4 6 2 3 1016.1 1016.1 -
22/03:30am 14.9 - - - - W 2 4 1 2 1016.2 1016.2 -
22/03:00am 13.8 - - - - S 2 4 1 2 1016.3 1016.3 -
22/02:30am 13.7 - - - - SW 4 6 2 3 1016.9 1016.9 -
22/02:00am 13.8 - - - - SW 2 4 1 2 1017.3 1017.3 -
22/01:30am 14.0 - - - - SW 2 4 1 2 1017.7 1017.7 -
22/01:00am 14.9 - - - - CALM 0 2 0 1 1018.2 1018.2 -
22/12:30am 15.7 - - - - E 4 6 2 3 1018.4 1018.4 -
22/12:00am 15.8 - - - - E 4 6 2 3 1018.8 1018.8 -

Other Formats:

Comma delimited format used in spreadsheet applications
http://www.bom.gov.au/fwo/IDV60801/IDV60801.95826.axf

JavaScript Object Notation format (JSON) in row-major order
http://www.bom.gov.au/fwo/IDV60801/IDV60801.95826.json